sensor_id;sensor_type;location;lat;lon;timestamp;pressure;altitude;pressure_sealevel;temperature;humidity
39075;BME280;24826;52.070;20.970;2023-01-29T00:02:07;61543.81;;;-147.04;70.63
39075;BME280;24826;52.070;20.970;2023-01-29T00:04:52;61541.81;;;-147.04;70.41
39075;BME280;24826;52.070;20.970;2023-01-29T00:07:37;61512.00;;;-147.04;70.23
39075;BME280;24826;52.070;20.970;2023-01-29T00:10:22;61539.84;;;-147.04;70.02
39075;BME280;24826;52.070;20.970;2023-01-29T00:13:06;61486.16;;;-147.04;70.33
39075;BME280;24826;52.070;20.970;2023-01-29T00:15:55;61543.81;;;-147.04;69.91
39075;BME280;24826;52.070;20.970;2023-01-29T00:18:40;61529.91;;;-147.04;71.12
39075;BME280;24826;52.070;20.970;2023-01-29T00:21:25;61506.03;;;-147.04;70.76
39075;BME280;24826;52.070;20.970;2023-01-29T00:24:09;61539.84;;;-147.04;70.17
39075;BME280;24826;52.070;20.970;2023-01-29T00:26:53;61523.94;;;-147.04;69.86
39075;BME280;24826;52.070;20.970;2023-01-29T00:29:37;61535.88;;;-147.04;70.09
39075;BME280;24826;52.070;20.970;2023-01-29T00:32:22;61517.97;;;-147.04;70.61
39075;BME280;24826;52.070;20.970;2023-01-29T00:35:07;61480.19;;;-147.04;69.96
39075;BME280;24826;52.070;20.970;2023-01-29T00:37:54;61559.72;;;-147.04;70.43
39075;BME280;24826;52.070;20.970;2023-01-29T00:40:39;61508.03;;;-147.04;69.83
39075;BME280;24826;52.070;20.970;2023-01-29T00:43:42;61504.03;;;-147.04;69.45
39075;BME280;24826;52.070;20.970;2023-01-29T00:46:45;61494.09;;;-147.04;69.48
39075;BME280;24826;52.070;20.970;2023-01-29T00:49:30;61494.09;;;-147.04;69.95
39075;BME280;24826;52.070;20.970;2023-01-29T00:52:14;61567.69;;;-147.04;70.40
39075;BME280;24826;52.070;20.970;2023-01-29T00:55:09;61527.91;;;-147.04;69.84
39075;BME280;24826;52.070;20.970;2023-01-29T00:57:53;61531.88;;;-147.04;70.27
39075;BME280;24826;52.070;20.970;2023-01-29T01:00:37;61523.94;;;-147.04;70.51
39075;BME280;24826;52.070;20.970;2023-01-29T01:03:21;61527.91;;;-147.04;70.16
39075;BME280;24826;52.070;20.970;2023-01-29T01:06:08;61500.06;;;-147.04;69.77
39075;BME280;24826;52.070;20.970;2023-01-29T01:08:53;61541.81;;;-147.04;70.31
39075;BME280;24826;52.070;20.970;2023-01-29T01:11:56;61523.94;;;-147.04;69.76
39075;BME280;24826;52.070;20.970;2023-01-29T01:14:40;61563.69;;;-147.04;70.00
39075;BME280;24826;52.070;20.970;2023-01-29T01:17:26;61551.78;;;-147.04;69.45
39075;BME280;24826;52.070;20.970;2023-01-29T01:20:11;61512.00;;;-147.04;69.73
39075;BME280;24826;52.070;20.970;2023-01-29T01:22:56;61533.88;;;-147.04;69.72
39075;BME280;24826;52.070;20.970;2023-01-29T01:25:40;61510.00;;;-147.04;69.37
39075;BME280;24826;52.070;20.970;2023-01-29T01:28:25;61512.00;;;-147.04;69.63
39075;BME280;24826;52.070;20.970;2023-01-29T01:31:11;61531.88;;;-147.04;69.71
39075;BME280;24826;52.070;20.970;2023-01-29T01:33:56;61537.84;;;-147.04;70.51
39075;BME280;24826;52.070;20.970;2023-01-29T01:36:40;61535.88;;;-147.04;70.81
39075;BME280;24826;52.070;20.970;2023-01-29T01:39:25;61565.69;;;-147.04;70.59
39075;BME280;24826;52.070;20.970;2023-01-29T01:42:12;61514.00;;;-147.04;70.31
39075;BME280;24826;52.070;20.970;2023-01-29T01:45:00;61529.91;;;-147.04;70.65
39075;BME280;24826;52.070;20.970;2023-01-29T01:47:50;61549.78;;;-147.04;71.15
39075;BME280;24826;52.070;20.970;2023-01-29T01:50:44;61679.03;;;-147.04;71.29
39075;BME280;24826;52.070;20.970;2023-01-29T01:53:41;61551.78;;;-147.04;71.48
39075;BME280;24826;52.070;20.970;2023-01-29T01:56:30;61521.94;;;-147.04;71.11
39075;BME280;24826;52.070;20.970;2023-01-29T01:59:21;61531.88;;;-147.04;71.10
39075;BME280;24826;52.070;20.970;2023-01-29T02:02:06;61519.94;;;-147.04;71.90
39075;BME280;24826;52.070;20.970;2023-01-29T02:05:11;61535.88;;;-147.04;71.78
39075;BME280;24826;52.070;20.970;2023-01-29T02:11:39;61496.09;;;-147.04;71.00
39075;BME280;24826;52.070;20.970;2023-01-29T02:14:24;61519.94;;;-147.04;71.08
39075;BME280;24826;52.070;20.970;2023-01-29T02:17:13;61547.78;;;-147.04;70.46
39075;BME280;24826;52.070;20.970;2023-01-29T02:23:00;61551.78;;;-147.04;70.63
39075;BME280;24826;52.070;20.970;2023-01-29T02:26:14;61647.22;;;-147.04;71.05
39075;BME280;24826;52.070;20.970;2023-01-29T02:29:12;61523.94;;;-147.04;71.04
39075;BME280;24826;52.070;20.970;2023-01-29T02:32:14;61514.00;;;-147.04;71.20
39075;BME280;24826;52.070;20.970;2023-01-29T02:35:43;61559.72;;;-147.04;71.15
39075;BME280;24826;52.070;20.970;2023-01-29T02:38:45;61531.88;;;-147.04;70.88
39075;BME280;24826;52.070;20.970;2023-01-29T02:41:57;61529.91;;;-147.04;70.94
39075;BME280;24826;52.070;20.970;2023-01-29T02:44:55;61531.88;;;-147.04;71.13
39075;BME280;24826;52.070;20.970;2023-01-29T02:50:47;61555.75;;;-147.04;71.30
39075;BME280;24826;52.070;20.970;2023-01-29T02:56:59;61517.97;;;-147.04;71.59
39075;BME280;24826;52.070;20.970;2023-01-29T02:59:54;61504.03;;;-147.04;71.60
39075;BME280;24826;52.070;20.970;2023-01-29T03:02:47;61535.88;;;-147.04;72.33
39075;BME280;24826;52.070;20.970;2023-01-29T03:08:41;61531.88;;;-147.04;72.47
39075;BME280;24826;52.070;20.970;2023-01-29T03:11:33;61521.94;;;-147.04;72.56
39075;BME280;24826;52.070;20.970;2023-01-29T03:14:37;61512.00;;;-147.04;72.56
39075;BME280;24826;52.070;20.970;2023-01-29T03:18:06;61527.91;;;-147.04;72.98
39075;BME280;24826;52.070;20.970;2023-01-29T03:20:56;61517.97;;;-147.04;72.68
39075;BME280;24826;52.070;20.970;2023-01-29T03:23:43;61525.91;;;-147.04;72.78
39075;BME280;24826;52.070;20.970;2023-01-29T03:26:46;61519.94;;;-147.04;72.74
39075;BME280;24826;52.070;20.970;2023-01-29T03:29:50;61523.94;;;-147.04;72.90
39075;BME280;24826;52.070;20.970;2023-01-29T03:32:58;61523.94;;;-147.04;72.07
39075;BME280;24826;52.070;20.970;2023-01-29T03:35:50;61515.97;;;-147.04;72.36
39075;BME280;24826;52.070;20.970;2023-01-29T03:38:36;61535.88;;;-147.04;71.99
39075;BME280;24826;52.070;20.970;2023-01-29T03:41:33;61512.00;;;-147.04;72.05
39075;BME280;24826;52.070;20.970;2023-01-29T03:44:34;61545.81;;;-147.04;71.67
39075;BME280;24826;52.070;20.970;2023-01-29T03:47:40;61539.84;;;-147.04;71.97
39075;BME280;24826;52.070;20.970;2023-01-29T03:50:53;61531.88;;;-147.04;72.30
39075;BME280;24826;52.070;20.970;2023-01-29T03:53:42;61531.88;;;-147.04;72.49
39075;BME280;24826;52.070;20.970;2023-01-29T03:59:38;61531.88;;;-147.04;72.27
39075;BME280;24826;52.070;20.970;2023-01-29T04:02:30;61498.09;;;-147.04;72.63
39075;BME280;24826;52.070;20.970;2023-01-29T04:05:18;61508.03;;;-147.04;72.97
39075;BME280;24826;52.070;20.970;2023-01-29T04:08:09;61547.78;;;-147.04;73.36
39075;BME280;24826;52.070;20.970;2023-01-29T04:10:56;61531.88;;;-147.04;73.42
39075;BME280;24826;52.070;20.970;2023-01-29T04:13:44;61547.78;;;-147.04;73.66
39075;BME280;24826;52.070;20.970;2023-01-29T04:16:38;61537.84;;;-147.04;73.02
39075;BME280;24826;52.070;20.970;2023-01-29T04:19:23;61533.88;;;-147.04;73.28
39075;BME280;24826;52.070;20.970;2023-01-29T04:22:32;61555.75;;;-147.04;73.54
39075;BME280;24826;52.070;20.970;2023-01-29T04:25:26;61559.72;;;-147.04;73.31
39075;BME280;24826;52.070;20.970;2023-01-29T04:31:05;61482.19;;;-147.04;73.46
39075;BME280;24826;52.070;20.970;2023-01-29T04:39:55;61527.91;;;-147.04;73.67
39075;BME280;24826;52.070;20.970;2023-01-29T04:43:02;61525.91;;;-147.04;74.16
39075;BME280;24826;52.070;20.970;2023-01-29T04:46:01;61523.94;;;-147.04;74.02
39075;BME280;24826;52.070;20.970;2023-01-29T04:49:16;61514.00;;;-147.04;73.77
39075;BME280;24826;52.070;20.970;2023-01-29T05:00:55;61537.84;;;-147.04;74.11
39075;BME280;24826;52.070;20.970;2023-01-29T05:03:44;61529.91;;;-147.04;73.03
39075;BME280;24826;52.070;20.970;2023-01-29T05:06:31;61531.88;;;-147.04;72.75
39075;BME280;24826;52.070;20.970;2023-01-29T05:09:15;61500.06;;;-147.04;72.92
39075;BME280;24826;52.070;20.970;2023-01-29T05:12:01;61555.75;;;-147.04;72.82
39075;BME280;24826;52.070;20.970;2023-01-29T05:14:47;61515.97;;;-147.04;72.64
39075;BME280;24826;52.070;20.970;2023-01-29T05:17:32;61504.03;;;-147.04;72.42
39075;BME280;24826;52.070;20.970;2023-01-29T05:20:16;61515.97;;;-147.04;73.46
39075;BME280;24826;52.070;20.970;2023-01-29T05:23:01;61512.00;;;-147.04;72.66
39075;BME280;24826;52.070;20.970;2023-01-29T05:25:47;61510.00;;;-147.04;72.37
39075;BME280;24826;52.070;20.970;2023-01-29T05:28:32;61531.88;;;-147.04;71.77
39075;BME280;24826;52.070;20.970;2023-01-29T05:31:16;61539.84;;;-147.04;72.42
39075;BME280;24826;52.070;20.970;2023-01-29T05:34:00;61533.88;;;-147.04;72.85
39075;BME280;24826;52.070;20.970;2023-01-29T05:36:45;61496.09;;;-147.04;72.54
39075;BME280;24826;52.070;20.970;2023-01-29T05:39:29;61551.78;;;-147.04;73.10
39075;BME280;24826;52.070;20.970;2023-01-29T05:42:13;61515.97;;;-147.04;73.13
39075;BME280;24826;52.070;20.970;2023-01-29T05:44:58;61541.81;;;-147.04;73.06
39075;BME280;24826;52.070;20.970;2023-01-29T05:47:42;61539.84;;;-147.04;73.03
39075;BME280;24826;52.070;20.970;2023-01-29T05:50:27;61519.94;;;-147.04;73.22
39075;BME280;24826;52.070;20.970;2023-01-29T05:53:11;61533.88;;;-147.04;73.52
39075;BME280;24826;52.070;20.970;2023-01-29T05:55:56;61541.81;;;-147.04;73.27
39075;BME280;24826;52.070;20.970;2023-01-29T05:58:43;61527.91;;;-147.04;72.89
39075;BME280;24826;52.070;20.970;2023-01-29T06:01:28;61531.88;;;-147.04;73.49
39075;BME280;24826;52.070;20.970;2023-01-29T06:04:12;61510.00;;;-147.04;73.02
39075;BME280;24826;52.070;20.970;2023-01-29T06:06:57;61535.88;;;-147.04;73.65
39075;BME280;24826;52.070;20.970;2023-01-29T06:09:41;61519.94;;;-147.04;73.59
39075;BME280;24826;52.070;20.970;2023-01-29T06:12:26;61521.94;;;-147.04;73.59
39075;BME280;24826;52.070;20.970;2023-01-29T06:15:11;61512.00;;;-147.04;73.72
39075;BME280;24826;52.070;20.970;2023-01-29T06:17:56;61510.00;;;-147.04;73.31
39075;BME280;24826;52.070;20.970;2023-01-29T06:20:40;61488.13;;;-147.04;73.44
39075;BME280;24826;52.070;20.970;2023-01-29T06:23:25;61448.38;;;-147.04;72.19
39075;BME280;24826;52.070;20.970;2023-01-29T06:26:13;61492.13;;;-147.04;72.51
39075;BME280;24826;52.070;20.970;2023-01-29T06:28:58;61515.97;;;-147.04;72.46
39075;BME280;24826;52.070;20.970;2023-01-29T06:31:42;61519.94;;;-147.04;71.63
39075;BME280;24826;52.070;20.970;2023-01-29T06:34:27;61496.09;;;-147.04;72.23
39075;BME280;24826;52.070;20.970;2023-01-29T06:37:11;61514.00;;;-147.04;71.90
39075;BME280;24826;52.070;20.970;2023-01-29T06:39:55;61512.00;;;-147.04;71.49
39075;BME280;24826;52.070;20.970;2023-01-29T06:42:40;61508.03;;;-147.04;71.16
39075;BME280;24826;52.070;20.970;2023-01-29T06:45:24;61506.03;;;-147.04;71.28
39075;BME280;24826;52.070;20.970;2023-01-29T06:48:08;61521.94;;;-147.04;71.33
39075;BME280;24826;52.070;20.970;2023-01-29T06:50:53;61515.97;;;-147.04;71.49
39075;BME280;24826;52.070;20.970;2023-01-29T06:53:38;61519.94;;;-147.04;71.04
39075;BME280;24826;52.070;20.970;2023-01-29T06:56:23;61557.75;;;-147.04;71.41
39075;BME280;24826;52.070;20.970;2023-01-29T06:59:07;61523.94;;;-147.04;71.73
39075;BME280;24826;52.070;20.970;2023-01-29T07:01:52;61543.81;;;-147.04;71.43
39075;BME280;24826;52.070;20.970;2023-01-29T07:04:37;61500.06;;;-147.04;71.49
39075;BME280;24826;52.070;20.970;2023-01-29T07:07:22;61515.97;;;-147.04;71.10
39075;BME280;24826;52.070;20.970;2023-01-29T07:10:07;61510.00;;;-147.04;71.59
39075;BME280;24826;52.070;20.970;2023-01-29T07:12:52;61521.94;;;-147.04;71.62
39075;BME280;24826;52.070;20.970;2023-01-29T07:15:36;61535.88;;;-147.04;71.69
39075;BME280;24826;52.070;20.970;2023-01-29T07:18:20;61494.09;;;-147.04;71.55
39075;BME280;24826;52.070;20.970;2023-01-29T07:21:05;61535.88;;;-147.04;72.05
39075;BME280;24826;52.070;20.970;2023-01-29T07:23:50;61527.91;;;-147.04;72.44
39075;BME280;24826;52.070;20.970;2023-01-29T07:26:35;61498.09;;;-147.04;72.18
39075;BME280;24826;52.070;20.970;2023-01-29T07:29:20;61508.03;;;-147.04;72.11
39075;BME280;24826;52.070;20.970;2023-01-29T07:32:04;61527.91;;;-147.04;71.92
39075;BME280;24826;52.070;20.970;2023-01-29T07:34:48;61519.94;;;-147.04;71.91
39075;BME280;24826;52.070;20.970;2023-01-29T07:37:33;61527.91;;;-147.04;71.41
39075;BME280;24826;52.070;20.970;2023-01-29T07:40:17;61508.03;;;-147.04;71.16
39075;BME280;24826;52.070;20.970;2023-01-29T07:43:04;61539.84;;;-147.04;71.61
39075;BME280;24826;52.070;20.970;2023-01-29T07:45:49;61515.97;;;-147.04;71.71
39075;BME280;24826;52.070;20.970;2023-01-29T07:48:34;61571.66;;;-147.04;71.50
39075;BME280;24826;52.070;20.970;2023-01-29T07:51:19;61551.78;;;-147.04;71.67
39075;BME280;24826;52.070;20.970;2023-01-29T07:54:04;61585.56;;;-147.04;71.30
39075;BME280;24826;52.070;20.970;2023-01-29T07:56:48;61563.69;;;-147.04;71.17
39075;BME280;24826;52.070;20.970;2023-01-29T07:59:33;61575.63;;;-147.04;71.10
39075;BME280;24826;52.070;20.970;2023-01-29T08:02:17;61579.59;;;-147.04;71.00
39075;BME280;24826;52.070;20.970;2023-01-29T08:05:02;61577.63;;;-147.04;70.58
39075;BME280;24826;52.070;20.970;2023-01-29T08:07:51;61541.81;;;-147.04;70.82
39075;BME280;24826;52.070;20.970;2023-01-29T08:10:38;61559.72;;;-147.04;70.18
39075;BME280;24826;52.070;20.970;2023-01-29T08:13:23;61567.69;;;-147.04;70.34
39075;BME280;24826;52.070;20.970;2023-01-29T08:16:07;61571.66;;;-147.04;70.72
39075;BME280;24826;52.070;20.970;2023-01-29T08:18:52;61539.84;;;-147.04;70.98
39075;BME280;24826;52.070;20.970;2023-01-29T08:21:36;61547.78;;;-147.04;70.27
39075;BME280;24826;52.070;20.970;2023-01-29T08:24:20;61545.81;;;-147.04;70.22
39075;BME280;24826;52.070;20.970;2023-01-29T08:27:04;61581.59;;;-147.04;70.08
39075;BME280;24826;52.070;20.970;2023-01-29T08:29:49;61575.63;;;-147.04;70.23
39075;BME280;24826;52.070;20.970;2023-01-29T08:32:34;61583.59;;;-147.04;69.81
39075;BME280;24826;52.070;20.970;2023-01-29T08:35:18;61521.94;;;-147.04;69.92
39075;BME280;24826;52.070;20.970;2023-01-29T08:38:03;61555.75;;;-147.04;69.82
39075;BME280;24826;52.070;20.970;2023-01-29T08:40:48;61581.59;;;-147.04;70.61
39075;BME280;24826;52.070;20.970;2023-01-29T08:43:33;61535.88;;;-147.04;70.95
39075;BME280;24826;52.070;20.970;2023-01-29T08:46:19;61545.81;;;-147.04;70.92
39075;BME280;24826;52.070;20.970;2023-01-29T08:49:04;61563.69;;;-147.04;70.94
39075;BME280;24826;52.070;20.970;2023-01-29T08:51:48;61573.66;;;-147.04;70.78
39075;BME280;24826;52.070;20.970;2023-01-29T08:54:34;61579.59;;;-147.04;70.67
39075;BME280;24826;52.070;20.970;2023-01-29T08:57:18;61575.63;;;-147.04;70.67
39075;BME280;24826;52.070;20.970;2023-01-29T09:00:04;61569.66;;;-147.04;70.30
39075;BME280;24826;52.070;20.970;2023-01-29T09:02:49;61569.66;;;-147.04;70.47
39075;BME280;24826;52.070;20.970;2023-01-29T09:05:34;61583.59;;;-147.04;70.19
39075;BME280;24826;52.070;20.970;2023-01-29T09:08:19;61508.03;;;-147.04;70.38
39075;BME280;24826;52.070;20.970;2023-01-29T09:11:03;61551.78;;;-147.04;70.55
39075;BME280;24826;52.070;20.970;2023-01-29T09:13:48;61553.75;;;-147.04;70.53
39075;BME280;24826;52.070;20.970;2023-01-29T09:16:32;61559.72;;;-147.04;70.50
39075;BME280;24826;52.070;20.970;2023-01-29T09:19:16;61559.72;;;-147.04;70.55
39075;BME280;24826;52.070;20.970;2023-01-29T09:22:01;61555.75;;;-147.04;70.11
39075;BME280;24826;52.070;20.970;2023-01-29T09:24:45;61557.75;;;-147.04;69.71
39075;BME280;24826;52.070;20.970;2023-01-29T09:27:29;61551.78;;;-147.04;70.18
39075;BME280;24826;52.070;20.970;2023-01-29T09:30:15;61575.63;;;-147.04;70.34
39075;BME280;24826;52.070;20.970;2023-01-29T09:32:59;61573.66;;;-147.04;70.64
39075;BME280;24826;52.070;20.970;2023-01-29T09:35:44;61547.78;;;-147.04;70.62
39075;BME280;24826;52.070;20.970;2023-01-29T09:38:30;61549.78;;;-147.04;70.47
39075;BME280;24826;52.070;20.970;2023-01-29T09:47:31;61615.41;;;-147.04;70.89
39075;BME280;24826;52.070;20.970;2023-01-29T09:56:05;61515.97;;;-147.04;71.02
39075;BME280;24826;52.070;20.970;2023-01-29T09:58:57;61575.63;;;-147.04;71.11
39075;BME280;24826;52.070;20.970;2023-01-29T10:02:13;61551.78;;;-147.04;71.00
39075;BME280;24826;52.070;20.970;2023-01-29T10:14:37;61561.72;;;-147.04;70.66
39075;BME280;24826;52.070;20.970;2023-01-29T10:21:07;61551.78;;;-147.04;70.02
39075;BME280;24826;52.070;20.970;2023-01-29T10:24:47;61527.91;;;-147.04;70.05
39075;BME280;24826;52.070;20.970;2023-01-29T10:27:36;61519.94;;;-147.04;70.23
39075;BME280;24826;52.070;20.970;2023-01-29T10:30:32;61515.97;;;-147.04;70.35
39075;BME280;24826;52.070;20.970;2023-01-29T10:33:23;61523.94;;;-147.04;70.94
39075;BME280;24826;52.070;20.970;2023-01-29T10:36:17;61531.88;;;-147.04;71.11
39075;BME280;24826;52.070;20.970;2023-01-29T10:39:03;61486.16;;;-147.04;71.89
39075;BME280;24826;52.070;20.970;2023-01-29T10:42:14;61523.94;;;-147.04;72.81
39075;BME280;24826;52.070;20.970;2023-01-29T10:50:57;61519.94;;;-147.04;73.57
39075;BME280;24826;52.070;20.970;2023-01-29T10:56:57;61512.00;;;-147.04;74.14
39075;BME280;24826;52.070;20.970;2023-01-29T11:00:09;61521.94;;;-147.04;75.29
39075;BME280;24826;52.070;20.970;2023-01-29T11:02:56;61533.88;;;-147.04;75.29
39075;BME280;24826;52.070;20.970;2023-01-29T11:05:46;61551.78;;;-147.04;75.82
39075;BME280;24826;52.070;20.970;2023-01-29T11:08:39;61527.91;;;-147.04;76.28
39075;BME280;24826;52.070;20.970;2023-01-29T11:11:33;61523.94;;;-147.04;76.42
39075;BME280;24826;52.070;20.970;2023-01-29T11:17:28;61541.81;;;-147.04;76.51
39075;BME280;24826;52.070;20.970;2023-01-29T11:20:27;61521.94;;;-147.04;76.55
39075;BME280;24826;52.070;20.970;2023-01-29T11:23:24;61533.88;;;-147.04;77.15
39075;BME280;24826;52.070;20.970;2023-01-29T11:26:11;61539.84;;;-147.04;77.03
39075;BME280;24826;52.070;20.970;2023-01-29T11:28:56;61555.75;;;-147.04;77.41
39075;BME280;24826;52.070;20.970;2023-01-29T11:31:40;61537.84;;;-147.04;78.07
39075;BME280;24826;52.070;20.970;2023-01-29T11:34:25;61484.16;;;-147.04;77.73
39075;BME280;24826;52.070;20.970;2023-01-29T11:37:17;61525.91;;;-147.04;78.38
39075;BME280;24826;52.070;20.970;2023-01-29T11:40:31;61512.00;;;-147.04;79.38
39075;BME280;24826;52.070;20.970;2023-01-29T11:46:12;61531.88;;;-147.04;79.46
39075;BME280;24826;52.070;20.970;2023-01-29T11:48:58;61535.88;;;-147.04;79.84
39075;BME280;24826;52.070;20.970;2023-01-29T11:51:42;61510.00;;;-147.04;79.35
39075;BME280;24826;52.070;20.970;2023-01-29T11:54:32;61508.03;;;-147.04;79.61
39075;BME280;24826;52.070;20.970;2023-01-29T12:02:55;61529.91;;;-147.04;80.70
39075;BME280;24826;52.070;20.970;2023-01-29T12:05:40;61515.97;;;-147.04;80.32
39075;BME280;24826;52.070;20.970;2023-01-29T12:08:31;61523.94;;;-147.04;80.48
39075;BME280;24826;52.070;20.970;2023-01-29T12:11:43;61488.13;;;-147.04;80.97
39075;BME280;24826;52.070;20.970;2023-01-29T12:14:30;61468.25;;;-147.04;80.23
39075;BME280;24826;52.070;20.970;2023-01-29T12:17:22;61504.03;;;-147.04;81.06
39075;BME280;24826;52.070;20.970;2023-01-29T12:20:14;61504.03;;;-147.04;81.86
39075;BME280;24826;52.070;20.970;2023-01-29T12:23:10;61498.09;;;-147.04;82.87
39075;BME280;24826;52.070;20.970;2023-01-29T12:26:04;61496.09;;;-147.04;82.89
39075;BME280;24826;52.070;20.970;2023-01-29T12:40:27;61527.91;;;-147.04;84.98
39075;BME280;24826;52.070;20.970;2023-01-29T12:43:15;61466.25;;;-147.04;84.87
39075;BME280;24826;52.070;20.970;2023-01-29T12:46:00;61500.06;;;-147.04;85.66
39075;BME280;24826;52.070;20.970;2023-01-29T12:48:46;61504.03;;;-147.04;85.35
39075;BME280;24826;52.070;20.970;2023-01-29T12:51:39;61525.91;;;-147.04;85.50
39075;BME280;24826;52.070;20.970;2023-01-29T12:54:35;61488.13;;;-147.04;85.76
39075;BME280;24826;52.070;20.970;2023-01-29T13:00:34;61486.16;;;-147.04;85.93
39075;BME280;24826;52.070;20.970;2023-01-29T13:03:28;61498.09;;;-147.04;85.79
39075;BME280;24826;52.070;20.970;2023-01-29T13:06:17;61456.31;;;-147.04;85.99
39075;BME280;24826;52.070;20.970;2023-01-29T13:09:10;61512.00;;;-147.04;86.09
39075;BME280;24826;52.070;20.970;2023-01-29T13:12:04;61476.22;;;-147.04;86.88
39075;BME280;24826;52.070;20.970;2023-01-29T13:15:01;61454.34;;;-147.04;88.39
39075;BME280;24826;52.070;20.970;2023-01-29T13:17:52;61470.25;;;-147.04;90.06
39075;BME280;24826;52.070;20.970;2023-01-29T13:20:38;61486.16;;;-147.04;90.43
39075;BME280;24826;52.070;20.970;2023-01-29T13:23:36;61488.13;;;-147.04;90.98
39075;BME280;24826;52.070;20.970;2023-01-29T13:26:22;61476.22;;;-147.04;91.07
39075;BME280;24826;52.070;20.970;2023-01-29T13:29:21;61519.94;;;-147.04;91.70
39075;BME280;24826;52.070;20.970;2023-01-29T13:32:06;61476.22;;;-147.04;91.94
39075;BME280;24826;52.070;20.970;2023-01-29T13:34:54;61490.13;;;-147.04;92.90
39075;BME280;24826;52.070;20.970;2023-01-29T13:37:59;61476.22;;;-147.04;93.36
39075;BME280;24826;52.070;20.970;2023-01-29T13:40:48;61490.13;;;-147.04;94.40
39075;BME280;24826;52.070;20.970;2023-01-29T13:43:36;61490.13;;;-147.04;95.39
39075;BME280;24826;52.070;20.970;2023-01-29T13:46:22;61484.16;;;-147.04;96.06
39075;BME280;24826;52.070;20.970;2023-01-29T13:49:23;61438.44;;;-147.04;96.09
39075;BME280;24826;52.070;20.970;2023-01-29T13:52:18;61464.28;;;-147.04;97.17
39075;BME280;24826;52.070;20.970;2023-01-29T13:55:07;61478.19;;;-147.04;97.74
39075;BME280;24826;52.070;20.970;2023-01-29T13:57:53;61523.94;;;-147.04;98.12
39075;BME280;24826;52.070;20.970;2023-01-29T14:06:06;61482.19;;;-147.04;99.47
39075;BME280;24826;52.070;20.970;2023-01-29T14:08:51;61492.13;;;-147.04;99.49
39075;BME280;24826;52.070;20.970;2023-01-29T14:11:36;61492.13;;;-147.04;100.00
39075;BME280;24826;52.070;20.970;2023-01-29T14:17:33;61476.22;;;-147.04;100.00
39075;BME280;24826;52.070;20.970;2023-01-29T14:20:23;61480.19;;;-147.04;100.00
39075;BME280;24826;52.070;20.970;2023-01-29T14:23:26;61464.28;;;-147.04;100.00
39075;BME280;24826;52.070;20.970;2023-01-29T14:26:27;61484.16;;;-147.04;100.00
39075;BME280;24826;52.070;20.970;2023-01-29T14:29:19;61456.31;;;-147.04;100.00
39075;BME280;24826;52.070;20.970;2023-01-29T14:34:59;61517.97;;;-147.04;100.00
39075;BME280;24826;52.070;20.970;2023-01-29T14:37:47;61515.97;;;-147.04;100.00
39075;BME280;24826;52.070;20.970;2023-01-29T14:40:32;61496.09;;;-147.04;100.00
39075;BME280;24826;52.070;20.970;2023-01-29T14:43:20;61468.25;;;-147.04;100.00
39075;BME280;24826;52.070;20.970;2023-01-29T14:49:54;61500.06;;;-147.04;100.00
39075;BME280;24826;52.070;20.970;2023-01-29T14:52:41;61496.09;;;-147.04;100.00
39075;BME280;24826;52.070;20.970;2023-01-29T14:58:49;61504.03;;;-147.04;100.00
39075;BME280;24826;52.070;20.970;2023-01-29T15:01:44;61460.31;;;-147.04;100.00
39075;BME280;24826;52.070;20.970;2023-01-29T15:04:38;61561.72;;;-147.04;100.00
39075;BME280;24826;52.070;20.970;2023-01-29T15:07:32;61492.13;;;-147.04;100.00
39075;BME280;24826;52.070;20.970;2023-01-29T15:10:37;61456.31;;;-147.04;100.00
39075;BME280;24826;52.070;20.970;2023-01-29T15:13:40;61515.97;;;-147.04;100.00
39075;BME280;24826;52.070;20.970;2023-01-29T15:17:39;61502.06;;;-147.04;100.00
39075;BME280;24826;52.070;20.970;2023-01-29T15:19:51;61472.22;;;-147.04;100.00
39075;BME280;24826;52.070;20.970;2023-01-29T15:22:41;61484.16;;;-147.04;100.00
39075;BME280;24826;52.070;20.970;2023-01-29T15:25:30;61472.22;;;-147.04;100.00
39075;BME280;24826;52.070;20.970;2023-01-29T15:28:17;61492.13;;;-147.04;100.00
39075;BME280;24826;52.070;20.970;2023-01-29T15:31:04;61514.00;;;-147.04;100.00
39075;BME280;24826;52.070;20.970;2023-01-29T15:33:52;61506.03;;;-147.04;100.00
39075;BME280;24826;52.070;20.970;2023-01-29T15:36:37;61468.25;;;-147.04;100.00
39075;BME280;24826;52.070;20.970;2023-01-29T15:39:24;61531.88;;;-147.04;100.00
39075;BME280;24826;52.070;20.970;2023-01-29T15:42:13;61508.03;;;-147.04;100.00
39075;BME280;24826;52.070;20.970;2023-01-29T15:45:18;61470.25;;;-147.04;100.00
39075;BME280;24826;52.070;20.970;2023-01-29T15:48:06;61498.09;;;-147.04;100.00
39075;BME280;24826;52.070;20.970;2023-01-29T15:50:52;61599.50;;;-147.04;100.00
39075;BME280;24826;52.070;20.970;2023-01-29T15:53:44;61510.00;;;-147.04;100.00
39075;BME280;24826;52.070;20.970;2023-01-29T15:56:43;61494.09;;;-147.04;100.00
39075;BME280;24826;52.070;20.970;2023-01-29T15:59:33;61512.00;;;-147.04;100.00
39075;BME280;24826;52.070;20.970;2023-01-29T16:05:23;61492.13;;;-147.04;100.00
39075;BME280;24826;52.070;20.970;2023-01-29T16:08:12;61500.06;;;-147.04;100.00
39075;BME280;24826;52.070;20.970;2023-01-29T16:11:01;61488.13;;;-147.04;100.00
39075;BME280;24826;52.070;20.970;2023-01-29T16:13:47;61515.97;;;-147.04;100.00
39075;BME280;24826;52.070;20.970;2023-01-29T16:16:33;61500.06;;;-147.04;100.00
39075;BME280;24826;52.070;20.970;2023-01-29T16:19:26;61515.97;;;-147.04;100.00
39075;BME280;24826;52.070;20.970;2023-01-29T16:22:10;61508.03;;;-147.04;100.00